createdAt,value
2019-06-08T00:00:02.182Z,16.63
2019-06-08T00:02:33.551Z,16.97
2019-06-08T00:05:04.451Z,16.57
2019-06-08T00:07:35.109Z,14.70
2019-06-08T00:10:06.640Z,14.73
2019-06-08T00:12:37.421Z,15.37
2019-06-08T00:15:08.582Z,14.83
2019-06-08T00:17:39.449Z,15.70
2019-06-08T00:20:13.467Z,14.97
2019-06-08T00:22:44.761Z,15.67
2019-06-08T00:25:15.782Z,15.13
2019-06-08T00:27:46.527Z,15.13
2019-06-08T00:30:18.713Z,15.57
2019-06-08T00:32:49.335Z,14.83
2019-06-08T00:35:20.806Z,14.87
2019-06-08T00:37:51.498Z,15.00
2019-06-08T00:40:23.098Z,15.77
2019-06-08T00:42:53.603Z,15.63
2019-06-08T00:45:25.574Z,16.50
2019-06-08T00:47:56.448Z,16.93
2019-06-08T00:50:27.343Z,16.07
2019-06-08T00:52:57.893Z,16.80
2019-06-08T00:55:29.772Z,14.60
2019-06-08T00:58:00.504Z,16.17
2019-06-08T01:00:31.056Z,16.60
2019-06-08T01:03:01.667Z,15.17
2019-06-08T01:05:32.490Z,14.13
2019-06-08T01:08:03.720Z,16.07
2019-06-08T01:10:34.543Z,16.57
2019-06-08T01:13:05.230Z,15.20
2019-06-08T01:15:35.904Z,16.23
2019-06-08T01:18:06.623Z,16.23
2019-06-08T01:20:37.344Z,16.10
2019-06-08T01:23:07.824Z,15.77
2019-06-08T01:25:38.717Z,15.23
2019-06-08T01:28:09.492Z,15.93
2019-06-08T01:30:40.068Z,14.67
2019-06-08T01:33:11.113Z,15.80
2019-06-08T01:35:41.618Z,14.67
2019-06-08T01:38:12.422Z,14.40
2019-06-08T01:40:42.955Z,15.30
2019-06-08T01:43:14.045Z,15.30
2019-06-08T01:45:44.752Z,15.70
2019-06-08T01:48:19.857Z,15.10
2019-06-08T01:50:48.029Z,16.27
2019-06-08T01:53:18.527Z,16.23
2019-06-08T01:55:49.003Z,17.33
2019-06-08T01:58:19.670Z,16.60
2019-06-08T02:00:50.581Z,17.80
2019-06-08T02:03:21.117Z,16.27
2019-06-08T02:05:51.719Z,17.10
2019-06-08T02:08:22.160Z,18.10
2019-06-08T02:10:52.725Z,16.53
2019-06-08T02:13:24.803Z,16.80
2019-06-08T02:15:55.626Z,17.33
2019-06-08T02:18:36.380Z,17.27
2019-06-08T02:20:58.903Z,16.97
2019-06-08T02:23:29.558Z,15.47
2019-06-08T02:26:00.089Z,15.97
2019-06-08T02:28:31.554Z,15.03
2019-06-08T02:31:02.415Z,14.70
2019-06-08T02:33:34.662Z,13.70
2019-06-08T02:36:05.251Z,14.67
2019-06-08T02:38:36.203Z,14.77
2019-06-08T02:41:07.519Z,16.07
2019-06-08T02:43:40.049Z,16.20
2019-06-08T02:46:10.274Z,16.87
2019-06-08T02:49:00.319Z,16.07
2019-06-08T02:51:13.933Z,15.53
2019-06-08T02:53:44.625Z,15.77
2019-06-08T02:56:16.042Z,15.53
2019-06-08T02:58:47.560Z,15.67
2019-06-08T03:01:19.843Z,14.87
2019-06-08T03:03:53.052Z,14.23
2019-06-08T03:06:25.002Z,14.13
2019-06-08T03:08:57.593Z,15.03
2019-06-08T03:11:28.112Z,15.27
2019-06-08T03:13:59.120Z,14.70
2019-06-08T03:16:31.239Z,13.77
2019-06-08T03:19:19.984Z,13.70
2019-06-08T03:21:35.649Z,14.37
2019-06-08T03:24:06.390Z,13.70
2019-06-08T03:26:39.697Z,14.60
2019-06-08T03:29:09.430Z,14.30
2019-06-08T03:31:53.970Z,12.53
2019-06-08T03:34:13.202Z,13.60
2019-06-08T03:36:54.868Z,13.97
2019-06-08T03:39:16.347Z,13.63
2019-06-08T03:41:47.041Z,14.03
2019-06-08T03:44:17.679Z,12.43
2019-06-08T03:46:48.168Z,13.70
2019-06-08T03:49:18.614Z,14.07
2019-06-08T03:51:49.296Z,13.00
2019-06-08T03:54:20.920Z,14.03
2019-06-08T03:56:51.431Z,14.70
2019-06-08T03:59:22.130Z,12.73
2019-06-08T04:01:54.232Z,13.67
2019-06-08T04:04:25.317Z,12.93
2019-06-08T04:06:55.815Z,13.57
2019-06-08T04:09:26.813Z,13.50
2019-06-08T04:11:57.507Z,14.10
2019-06-08T04:14:28.628Z,12.70
2019-06-08T04:17:00.425Z,12.70
2019-06-08T04:19:31.002Z,12.03
2019-06-08T04:22:01.612Z,12.17
2019-06-08T04:24:32.454Z,10.97
2019-06-08T04:27:03.721Z,10.83
2019-06-08T04:29:34.136Z,10.87
2019-06-08T04:32:04.999Z,10.87
2019-06-08T04:34:35.549Z,10.47
2019-06-08T04:37:06.326Z,11.13
2019-06-08T04:39:38.249Z,11.20
2019-06-08T04:42:09.404Z,10.70
2019-06-08T04:44:40.470Z,10.20
2019-06-08T04:47:11.077Z,10.90
2019-06-08T04:49:43.070Z,10.80
2019-06-08T04:52:13.732Z,10.67
2019-06-08T04:54:45.086Z,10.57
2019-06-08T04:57:16.108Z,9.97
2019-06-08T04:59:48.350Z,10.23
2019-06-08T05:02:18.920Z,9.90
2019-06-08T05:04:49.604Z,10.23
2019-06-08T05:07:20.309Z,10.23
2019-06-08T05:09:50.896Z,10.07
2019-06-08T05:12:21.472Z,9.97
2019-06-08T05:14:51.877Z,9.53
2019-06-08T05:17:22.450Z,9.90
2019-06-08T05:19:53.009Z,10.43
2019-06-08T05:22:23.493Z,9.67
2019-06-08T05:24:54.085Z,10.87
2019-06-08T05:27:24.693Z,11.90
2019-06-08T05:29:55.280Z,11.47
2019-06-08T05:32:25.989Z,10.97
2019-06-08T05:34:56.670Z,11.10
2019-06-08T05:37:27.328Z,11.10
2019-06-08T05:39:58.604Z,9.77
2019-06-08T05:42:29.077Z,11.53
2019-06-08T05:44:59.858Z,10.13
2019-06-08T05:47:30.515Z,9.87
2019-06-08T05:50:01.409Z,9.03
2019-06-08T05:52:32.131Z,9.30
2019-06-08T05:55:03.113Z,9.50
2019-06-08T05:57:33.937Z,8.15
2019-06-08T06:00:08.882Z,7.90
2019-06-08T06:02:37.281Z,7.80
2019-06-08T06:05:09.177Z,16.82
2019-06-08T06:07:40.641Z,8.80
2019-06-08T06:10:11.856Z,7.22
2019-06-08T06:12:43.008Z,5.70
2019-06-08T06:15:16.163Z,4.92
2019-06-08T06:17:48.039Z,5.90
2019-06-08T06:20:18.873Z,8.13
2019-06-08T06:22:49.592Z,9.20
2019-06-08T06:25:21.266Z,7.37
2019-06-08T06:27:52.245Z,7.20
2019-06-08T06:30:22.972Z,5.15
2019-06-08T06:32:53.604Z,5.90
2019-06-08T06:35:25.136Z,5.85
2019-06-08T06:37:55.716Z,5.80
2019-06-08T06:40:26.321Z,5.40
2019-06-08T06:42:56.821Z,5.75
2019-06-08T06:45:27.368Z,5.87
2019-06-08T06:47:57.850Z,5.35
2019-06-08T06:50:28.689Z,5.58
2019-06-08T06:52:59.394Z,5.45
2019-06-08T06:55:29.937Z,6.00
2019-06-08T06:58:00.719Z,13.85
2019-06-08T07:00:32.417Z,6.45
2019-06-08T07:03:03.141Z,5.45
2019-06-08T07:05:34.292Z,5.72
2019-06-08T07:08:04.829Z,6.08
2019-06-08T07:10:35.341Z,5.28
2019-06-08T07:13:06.293Z,5.12
2019-06-08T07:15:41.785Z,4.95
2019-06-08T07:18:08.919Z,5.25
2019-06-08T07:20:39.924Z,5.30
2019-06-08T07:23:10.524Z,7.25
2019-06-08T07:25:41.155Z,5.67
2019-06-08T07:28:11.704Z,5.67
2019-06-08T07:30:42.370Z,5.60
2019-06-08T07:33:12.912Z,5.08
2019-06-08T07:35:43.623Z,5.55
2019-06-08T07:38:14.244Z,6.03
2019-06-08T07:40:44.764Z,5.40
2019-06-08T07:43:15.342Z,10.80
2019-06-08T07:45:46.071Z,5.80
2019-06-08T07:48:16.889Z,7.22
2019-06-08T07:50:48.393Z,8.50
2019-06-08T07:53:18.951Z,4.80
2019-06-08T07:55:50.057Z,5.20
2019-06-08T07:58:21.102Z,5.15
2019-06-08T08:00:52.947Z,4.78
2019-06-08T08:03:23.883Z,4.20
2019-06-08T08:05:56.612Z,5.93
2019-06-08T08:08:28.512Z,3.97
2019-06-08T08:11:00.901Z,4.53
2019-06-08T08:13:31.616Z,5.70
2019-06-08T08:16:02.214Z,5.67
2019-06-08T08:18:33.042Z,5.60
2019-06-08T08:21:14.378Z,4.70
2019-06-08T08:23:38.164Z,4.33
2019-06-08T08:26:08.305Z,5.00
2019-06-08T08:28:38.859Z,3.73
2019-06-08T08:31:11.458Z,4.57
2019-06-08T08:33:41.671Z,4.37
2019-06-08T08:36:12.235Z,5.43
2019-06-08T08:38:42.824Z,5.60
2019-06-08T08:41:13.295Z,3.70
2019-06-08T08:43:43.916Z,4.30
2019-06-08T08:46:14.683Z,4.10
2019-06-08T08:48:45.292Z,22.67
2019-06-08T08:51:17.959Z,4.27
2019-06-08T08:53:53.872Z,4.37
2019-06-08T08:56:20.748Z,4.30
2019-06-08T08:58:52.419Z,6.40
2019-06-08T09:01:24.049Z,5.63
2019-06-08T09:03:57.132Z,3.83
2019-06-08T09:06:28.006Z,4.00
2019-06-08T09:09:01.718Z,5.10
2019-06-08T09:11:31.514Z,4.90
2019-06-08T09:14:07.121Z,4.57
2019-06-08T09:16:35.060Z,4.77
2019-06-08T09:19:08.303Z,4.57
2019-06-08T09:21:38.457Z,4.40
2019-06-08T09:24:09.228Z,4.67
2019-06-08T09:26:39.787Z,7.20
2019-06-08T09:29:11.408Z,16.80
2019-06-08T09:31:42.299Z,4.63
2019-06-08T09:34:15.453Z,5.50
2019-06-08T09:36:47.628Z,4.37
2019-06-08T09:39:18.550Z,4.83
2019-06-08T09:41:49.246Z,5.33
2019-06-08T09:44:20.102Z,5.10
2019-06-08T09:46:50.847Z,4.80
2019-06-08T09:49:21.422Z,4.77
2019-06-08T09:51:53.831Z,4.57
2019-06-08T09:54:24.698Z,4.40
2019-06-08T09:56:55.794Z,4.93
2019-06-08T09:59:28.428Z,5.07
2019-06-08T10:02:05.165Z,5.07
2019-06-08T10:04:31.564Z,5.03
2019-06-08T10:07:03.893Z,5.27
2019-06-08T10:09:34.898Z,5.27
2019-06-08T10:12:07.320Z,16.93
2019-06-08T10:14:38.131Z,6.63
2019-06-08T10:17:09.219Z,5.33
2019-06-08T10:19:39.749Z,4.90
2019-06-08T10:22:10.492Z,5.60
2019-06-08T10:24:41.509Z,5.20
2019-06-08T10:27:12.261Z,4.00
2019-06-08T10:29:43.127Z,4.53
2019-06-08T10:32:17.906Z,5.13
2019-06-08T10:34:48.144Z,5.03
2019-06-08T10:37:18.881Z,4.70
2019-06-08T10:39:49.479Z,5.10
2019-06-08T10:42:21.153Z,5.23
2019-06-08T10:44:51.939Z,5.20
2019-06-08T10:47:22.745Z,4.20
2019-06-08T10:49:53.433Z,5.30
2019-06-08T10:52:23.962Z,5.67
2019-06-08T10:54:54.539Z,4.90
2019-06-08T10:57:27.877Z,4.20
2019-06-08T10:59:59.786Z,4.37
2019-06-08T11:02:30.575Z,4.77
2019-06-08T11:05:04.740Z,5.27
2019-06-08T11:07:33.882Z,4.73
2019-06-08T11:10:06.308Z,5.00
2019-06-08T11:12:37.739Z,5.07
2019-06-08T11:15:11.580Z,9.60
2019-06-08T11:17:40.805Z,4.53
2019-06-08T11:20:13.617Z,4.73
2019-06-08T11:22:43.850Z,4.10
2019-06-08T11:25:16.734Z,4.20
2019-06-08T11:27:47.526Z,4.57
2019-06-08T11:30:23.751Z,5.50
2019-06-08T11:32:51.122Z,4.63
2019-06-08T11:35:21.881Z,4.73
2019-06-08T11:37:52.805Z,4.37
2019-06-08T11:40:24.181Z,4.40
2019-06-08T11:42:54.760Z,5.10
2019-06-08T11:45:26.699Z,5.27
2019-06-08T11:47:58.421Z,7.00
2019-06-08T11:50:41.429Z,5.47
2019-06-08T11:53:14.075Z,5.13
2019-06-08T11:55:44.226Z,4.70
2019-06-08T11:58:22.177Z,4.97
2019-06-08T12:01:01.001Z,5.13
2019-06-08T12:03:30.520Z,8.00
2019-06-08T12:06:02.166Z,5.47
2019-06-08T12:08:33.298Z,5.07
2019-06-08T12:11:05.397Z,5.53
2019-06-08T12:13:36.330Z,11.13
2019-06-08T12:16:09.363Z,4.70
2019-06-08T12:18:40.337Z,4.83
2019-06-08T12:21:12.596Z,5.10
2019-06-08T12:23:43.422Z,5.30
2019-06-08T12:26:14.543Z,5.20
2019-06-08T12:28:45.497Z,6.30
2019-06-08T12:31:21.449Z,5.47
2019-06-08T12:33:48.760Z,6.33
2019-06-08T12:36:20.697Z,5.30
2019-06-08T12:38:52.012Z,5.30
2019-06-08T12:41:22.601Z,5.60
2019-06-08T12:43:53.074Z,7.27
2019-06-08T12:46:23.578Z,5.97
2019-06-08T12:48:54.022Z,5.00
2019-06-08T12:51:24.746Z,5.17
2019-06-08T12:53:59.880Z,5.90
2019-06-08T12:56:28.923Z,6.73
2019-06-08T12:58:59.668Z,5.97
2019-06-08T13:01:30.559Z,5.63
2019-06-08T13:04:01.079Z,5.80
2019-06-08T13:06:31.651Z,5.40
2019-06-08T13:09:02.350Z,5.60
2019-06-08T13:11:34.437Z,5.97
2019-06-08T13:14:04.985Z,6.00
2019-06-08T13:16:38.092Z,6.33
2019-06-08T13:19:09.203Z,6.90
2019-06-08T13:21:40.504Z,5.97
2019-06-08T13:24:11.376Z,6.00
2019-06-08T13:26:42.124Z,6.20
2019-06-08T13:29:13.722Z,7.50
2019-06-08T13:31:44.393Z,6.43
2019-06-08T13:34:16.637Z,5.90
2019-06-08T13:36:48.474Z,6.03
2019-06-08T13:39:21.236Z,5.90
2019-06-08T13:41:52.166Z,6.03
2019-06-08T13:44:22.862Z,6.17
2019-06-08T13:46:53.639Z,6.13
2019-06-08T13:49:29.631Z,6.37
2019-06-08T13:51:58.350Z,6.00
2019-06-08T13:54:31.292Z,6.70
2019-06-08T13:57:01.987Z,6.10
2019-06-08T13:59:32.663Z,6.33
2019-06-08T14:02:03.470Z,9.00
2019-06-08T14:04:34.231Z,6.50
2019-06-08T14:07:07.740Z,7.00
2019-06-08T14:09:38.426Z,7.93
2019-06-08T14:12:09.263Z,7.27
2019-06-08T14:14:40.013Z,6.80
2019-06-08T14:17:11.515Z,7.13
2019-06-08T14:19:42.429Z,7.17
2019-06-08T14:22:12.866Z,7.40
2019-06-08T14:24:43.912Z,9.13
2019-06-08T14:27:14.515Z,7.67
2019-06-08T14:29:45.242Z,7.17
2019-06-08T14:32:18.808Z,7.40
2019-06-08T14:34:50.224Z,7.57
2019-06-08T14:37:20.143Z,7.73
2019-06-08T14:39:50.962Z,6.90
2019-06-08T14:42:25.998Z,7.03
2019-06-08T14:44:53.968Z,7.67
2019-06-08T14:47:24.820Z,8.67
2019-06-08T14:49:55.288Z,10.27
2019-06-08T14:52:28.097Z,10.27
2019-06-08T14:54:58.699Z,11.00
2019-06-08T14:57:30.909Z,9.20
2019-06-08T15:00:08.317Z,8.37
2019-06-08T15:02:33.983Z,8.13
2019-06-08T15:05:07.644Z,8.23
2019-06-08T15:07:38.815Z,8.17
2019-06-08T15:10:10.095Z,7.80
2019-06-08T15:12:40.695Z,7.60
2019-06-08T15:15:11.516Z,10.23
2019-06-08T15:17:42.357Z,6.40
2019-06-08T15:20:13.064Z,6.83
2019-06-08T15:22:43.496Z,5.90
2019-06-08T15:25:14.427Z,5.10
2019-06-08T15:27:44.933Z,5.67
2019-06-08T15:30:17.466Z,4.70
2019-06-08T15:32:48.106Z,5.53
2019-06-08T15:35:19.187Z,4.17
2019-06-08T15:37:49.729Z,4.80
2019-06-08T15:40:21.470Z,4.50
2019-06-08T15:42:52.283Z,3.90
2019-06-08T15:45:24.023Z,3.63
2019-06-08T15:47:54.993Z,3.27
2019-06-08T15:50:26.239Z,3.70
2019-06-08T15:52:59.811Z,3.47
2019-06-08T15:55:31.909Z,3.73
2019-06-08T15:58:01.948Z,3.93
2019-06-08T16:00:34.173Z,2.43
2019-06-08T16:03:05.098Z,2.80
2019-06-08T16:05:35.587Z,2.80
2019-06-08T16:08:06.076Z,3.23
2019-06-08T16:10:36.889Z,2.70
2019-06-08T16:13:07.502Z,2.53
2019-06-08T16:15:38.149Z,2.70
2019-06-08T16:18:09.647Z,2.53
2019-06-08T16:20:40.227Z,2.60
2019-06-08T16:23:10.728Z,2.60
2019-06-08T16:25:41.189Z,2.57
2019-06-08T16:28:11.778Z,3.17
2019-06-08T16:30:42.327Z,2.60
2019-06-08T16:33:13.959Z,2.80
2019-06-08T16:35:44.773Z,2.47
2019-06-08T16:38:15.550Z,2.73
2019-06-08T16:40:46.222Z,2.83
2019-06-08T16:43:17.091Z,2.07
2019-06-08T16:45:47.705Z,2.30
2019-06-08T16:48:18.453Z,2.73
2019-06-08T16:50:48.966Z,2.57
2019-06-08T16:53:19.478Z,2.80
2019-06-08T16:55:50.001Z,2.20
2019-06-08T16:58:20.505Z,2.30
2019-06-08T17:00:51.214Z,2.27
2019-06-08T17:03:22.125Z,2.53
2019-06-08T17:05:52.689Z,2.57
2019-06-08T17:08:23.392Z,3.57
2019-06-08T17:10:55.060Z,2.47
2019-06-08T17:13:25.877Z,2.37
2019-06-08T17:15:56.944Z,3.10
2019-06-08T17:18:27.684Z,2.23
2019-06-08T17:20:58.298Z,2.40
2019-06-08T17:23:30.295Z,2.27
2019-06-08T17:26:01.454Z,2.27
2019-06-08T17:28:33.215Z,2.10
2019-06-08T17:31:03.813Z,2.30
2019-06-08T17:33:35.267Z,2.77
2019-06-08T17:36:05.906Z,2.27
2019-06-08T17:38:37.205Z,2.53
2019-06-08T17:41:08.176Z,2.20
2019-06-08T17:43:38.736Z,2.60
2019-06-08T17:46:09.270Z,3.13
2019-06-08T17:48:40.714Z,3.10
2019-06-08T17:51:11.273Z,2.27
2019-06-08T17:53:43.182Z,2.80
2019-06-08T17:56:14.345Z,3.37
2019-06-08T17:58:44.991Z,2.40
2019-06-08T18:01:15.470Z,3.37
2019-06-08T18:03:48.155Z,3.70
2019-06-08T18:06:18.557Z,2.90
2019-06-08T18:08:49.351Z,2.90
2019-06-08T18:11:19.981Z,4.27
2019-06-08T18:13:50.561Z,3.20
2019-06-08T18:16:21.943Z,3.43
2019-06-08T18:18:52.391Z,2.97
2019-06-08T18:21:22.838Z,2.67
2019-06-08T18:23:53.281Z,3.13
2019-06-08T18:26:24.051Z,2.83
2019-06-08T18:28:55.158Z,5.00
2019-06-08T18:31:27.634Z,3.50
2019-06-08T18:34:01.262Z,3.10
2019-06-08T18:36:30.984Z,3.50
2019-06-08T18:39:01.644Z,2.90
2019-06-08T18:41:34.901Z,3.20
2019-06-08T18:44:08.237Z,3.30
2019-06-08T18:46:39.369Z,3.50
2019-06-08T18:49:10.003Z,3.07
2019-06-08T18:51:42.453Z,3.17
2019-06-08T18:54:14.868Z,3.47
2019-06-08T18:56:46.704Z,3.53
2019-06-08T18:59:18.349Z,3.23
2019-06-08T19:01:49.907Z,3.83
2019-06-08T19:04:21.613Z,3.97
2019-06-08T19:06:52.812Z,3.30
2019-06-08T19:09:24.339Z,3.63
2019-06-08T19:11:57.306Z,3.90
2019-06-08T19:14:29.022Z,3.03
2019-06-08T19:16:59.918Z,3.43
2019-06-08T19:19:31.451Z,3.63
2019-06-08T19:22:02.464Z,3.63
2019-06-08T19:24:33.281Z,3.67
2019-06-08T19:27:04.136Z,3.47
2019-06-08T19:29:34.761Z,3.87
2019-06-08T19:32:07.301Z,6.60
2019-06-08T19:34:39.156Z,4.17
2019-06-08T19:37:09.931Z,3.50
2019-06-08T19:39:44.155Z,4.03
2019-06-08T19:42:14.229Z,3.47
2019-06-08T19:44:57.617Z,3.43
2019-06-08T19:47:17.622Z,3.23
2019-06-08T19:49:54.460Z,5.27
2019-06-08T19:52:20.990Z,6.37
2019-06-08T19:54:53.895Z,3.47
2019-06-08T19:57:23.876Z,3.57
2019-06-08T19:59:54.373Z,4.40
2019-06-08T20:02:27.004Z,3.30
2019-06-08T20:04:57.207Z,3.07
2019-06-08T20:07:28.074Z,3.60
2019-06-08T20:09:59.616Z,3.60
2019-06-08T20:12:30.345Z,3.10
2019-06-08T20:15:01.140Z,4.17
2019-06-08T20:17:34.363Z,4.23
2019-06-08T20:20:07.755Z,3.07
2019-06-08T20:22:38.726Z,3.20
2019-06-08T20:25:10.668Z,3.17
2019-06-08T20:27:43.308Z,3.50
2019-06-08T20:30:14.163Z,3.43
2019-06-08T20:32:44.937Z,3.03
2019-06-08T20:35:17.409Z,4.20
2019-06-08T20:37:50.507Z,3.43
2019-06-08T20:40:21.312Z,3.47
2019-06-08T20:42:54.574Z,3.70
2019-06-08T20:45:24.320Z,3.33
2019-06-08T20:47:55.035Z,3.10
2019-06-08T20:50:27.127Z,3.80
2019-06-08T20:52:57.900Z,4.03
2019-06-08T20:55:28.515Z,3.83
2019-06-08T20:57:58.976Z,2.57
2019-06-08T21:00:30.305Z,3.60
2019-06-08T21:03:02.996Z,2.90
2019-06-08T21:05:33.329Z,3.37
2019-06-08T21:08:05.108Z,4.30
2019-06-08T21:10:37.768Z,3.30
2019-06-08T21:13:07.704Z,4.90
2019-06-08T21:15:38.533Z,4.27
2019-06-08T21:18:10.434Z,3.97
2019-06-08T21:20:41.465Z,4.63
2019-06-08T21:23:12.496Z,3.03
2019-06-08T21:25:43.238Z,3.23
2019-06-08T21:28:13.838Z,3.40
2019-06-08T21:30:44.527Z,2.93
2019-06-08T21:33:16.310Z,2.97
2019-06-08T21:35:49.540Z,3.30
2019-06-08T21:38:23.985Z,2.73
2019-06-08T21:40:55.681Z,2.90
2019-06-08T21:43:27.713Z,3.27
2019-06-08T21:46:00.930Z,3.10
2019-06-08T21:48:30.003Z,5.67
2019-06-08T21:51:01.753Z,3.50
2019-06-08T21:53:32.468Z,3.50
2019-06-08T21:56:03.134Z,3.40
2019-06-08T21:58:33.756Z,3.63
2019-06-08T22:01:07.365Z,3.60
2019-06-08T22:03:38.277Z,3.63
2019-06-08T22:06:09.183Z,3.27
2019-06-08T22:08:39.991Z,4.07
2019-06-08T22:11:10.765Z,3.90
2019-06-08T22:13:41.457Z,6.23
2019-06-08T22:16:12.206Z,3.67
2019-06-08T22:18:43.049Z,3.60
2019-06-08T22:21:13.741Z,3.40
2019-06-08T22:23:44.350Z,9.27
2019-06-08T22:26:17.623Z,4.23
2019-06-08T22:28:48.212Z,3.87
2019-06-08T22:31:19.146Z,3.47
2019-06-08T22:33:49.981Z,3.93
2019-06-08T22:36:20.615Z,3.70
2019-06-08T22:38:52.827Z,3.80
2019-06-08T22:41:23.517Z,3.77
2019-06-08T22:43:54.954Z,4.50
2019-06-08T22:46:26.442Z,6.97
2019-06-08T22:49:00.327Z,4.93
2019-06-08T22:51:29.294Z,4.17
2019-06-08T22:54:01.138Z,3.63
2019-06-08T22:56:32.238Z,3.90
2019-06-08T22:59:04.746Z,3.80
2019-06-08T23:01:38.370Z,4.10
2019-06-08T23:04:09.056Z,4.50
2019-06-08T23:06:39.804Z,4.30
2019-06-08T23:09:10.428Z,4.10
2019-06-08T23:11:40.897Z,3.97
2019-06-08T23:14:13.416Z,4.47
2019-06-08T23:16:43.448Z,4.13
2019-06-08T23:19:14.108Z,5.30
2019-06-08T23:21:44.670Z,5.13
2019-06-08T23:24:15.407Z,5.67
2019-06-08T23:26:47.870Z,9.93
2019-06-08T23:29:18.075Z,12.70
2019-06-08T23:31:48.787Z,8.00
2019-06-08T23:34:22.438Z,5.30
2019-06-08T23:36:58.662Z,4.77
2019-06-08T23:39:23.773Z,4.57
2019-06-08T23:41:54.231Z,5.10
2019-06-08T23:44:24.944Z,5.47
2019-06-08T23:46:58.114Z,5.60
2019-06-08T23:49:28.036Z,5.93
2019-06-08T23:52:01.146Z,5.60
2019-06-08T23:54:31.349Z,5.50
2019-06-08T23:57:02.866Z,6.50
2019-06-08T23:59:37.064Z,5.73
